Huvudsida
METAR-TAF:

METAR-TAF

Flygplatser :

Niamey, Niger

latitud: 13-29N, longitud: 002-10E, höjd: 223 m

Aktuellt väderrapport

Denna rapport gjordes för 52 minuter sedan, klockan 20:00 UTC
Vind 5 kt från ost/sydost
Temperatur 30°C
Fuktighet 14%
Tryck 1012 hPa
Sikt: 6000 m

METAR: DRRN 162000Z 12005KT 6000 NSC 30/00 Q1012 NOSIG

Tid: 21:52 (20:52 UTC)

Väderprognos

Denna rapport gjordes för 3 timmar och 52 minuter sedan, klockan 17:00 UTC
Prognos gäller från 16 kl. 18 UTC till 17 kl. 24 UTC
Vind 6 kt från ost
Sikt: 8000 m
Temporärt
från 16 kl. 18 UTC till 17 kl. 21 UTC
Sikt: 4000 m
utbrett stoft
Blir
från 16 kl. 21 UTC till 16 kl. 23 UTC
Sikt: 4500 m
utbrett stoft
Temporärt
från 17 kl. 06 UTC till 17 kl. 10 UTC
Sikt: 2500 m

TAF: DRRN 161700Z 1618/1724 10006KT 8000 NSC TEMPO 1618/1721 4000 DU BECMG 1621/1623 4500 DU TEMPO 1706/1710 2500

Aktuella väderrapporter och prognoser från 4000 flygplatser (METAR- och TAF-rapporter).

De tillgängliga stationerna syns som gula och röda prickar på kartan.

För musen över prickarna för att se namnen på stationerna.

Klicka sedan för att få väderrapporter och prognoser.

För att ändra kartan: Klicka på de gröna knapparna med ett svart kors på för att zooma in; den gröna knappen med ett streck på för att zooma ut; eller på de gröna pilarna för angränsande kartor.


METAR-TAF: